sensor_id;sensor_type;location;lat;lon;timestamp;pressure;altitude;pressure_sealevel;temperature;humidity
27202;BME280;14717;46.924;15.474;2023-04-23T00:00:47;97430.31;;;10.26;90.22
27202;BME280;14717;46.924;15.474;2023-04-23T00:03:13;97422.69;;;10.18;90.00
27202;BME280;14717;46.924;15.474;2023-04-23T00:05:39;97423.75;;;9.85;90.42
27202;BME280;14717;46.924;15.474;2023-04-23T00:08:09;97423.22;;;9.83;90.67
27202;BME280;14717;46.924;15.474;2023-04-23T00:10:35;97416.06;;;9.82;90.86
27202;BME280;14717;46.924;15.474;2023-04-23T00:13:00;97422.72;;;9.81;90.35
27202;BME280;14717;46.924;15.474;2023-04-23T00:15:26;97415.53;;;9.80;89.94
27202;BME280;14717;46.924;15.474;2023-04-23T00:17:52;97410.34;;;9.97;89.03
27202;BME280;14717;46.924;15.474;2023-04-23T00:20:18;97422.41;;;9.83;89.38
27202;BME280;14717;46.924;15.474;2023-04-23T00:22:43;97411.00;;;9.89;88.24
27202;BME280;14717;46.924;15.474;2023-04-23T00:25:09;97420.78;;;10.00;89.63
27202;BME280;14717;46.924;15.474;2023-04-23T00:27:35;97417.84;;;10.10;89.59
27202;BME280;14717;46.924;15.474;2023-04-23T00:30:01;97419.38;;;9.84;90.03
27202;BME280;14717;46.924;15.474;2023-04-23T00:32:27;97429.25;;;9.49;91.09
27202;BME280;14717;46.924;15.474;2023-04-23T00:34:53;97422.97;;;9.25;93.31
27202;BME280;14717;46.924;15.474;2023-04-23T00:37:19;97429.19;;;9.12;94.34
27202;BME280;14717;46.924;15.474;2023-04-23T00:39:44;97425.31;;;9.13;94.06
27202;BME280;14717;46.924;15.474;2023-04-23T00:42:10;97420.03;;;9.17;95.34
27202;BME280;14717;46.924;15.474;2023-04-23T00:44:39;97420.50;;;9.24;95.45
27202;BME280;14717;46.924;15.474;2023-04-23T00:47:06;97425.97;;;9.29;94.24
27202;BME280;14717;46.924;15.474;2023-04-23T00:49:35;97426.69;;;9.34;94.09
27202;BME280;14717;46.924;15.474;2023-04-23T00:52:02;97423.50;;;9.27;92.62
27202;BME280;14717;46.924;15.474;2023-04-23T00:54:28;97424.94;;;9.20;93.67
27202;BME280;14717;46.924;15.474;2023-04-23T00:56:54;97423.88;;;9.39;93.10
27202;BME280;14717;46.924;15.474;2023-04-23T00:59:23;97425.91;;;9.52;91.61
27202;BME280;14717;46.924;15.474;2023-04-23T01:01:49;97430.34;;;9.30;90.67
27202;BME280;14717;46.924;15.474;2023-04-23T01:04:15;97425.19;;;9.23;91.21
27202;BME280;14717;46.924;15.474;2023-04-23T01:06:42;97422.63;;;9.08;92.99
27202;BME280;14717;46.924;15.474;2023-04-23T01:09:08;97415.59;;;8.97;93.17
27202;BME280;14717;46.924;15.474;2023-04-23T01:11:38;97424.31;;;9.04;93.34
27202;BME280;14717;46.924;15.474;2023-04-23T01:14:03;97421.44;;;9.14;93.49
27202;BME280;14717;46.924;15.474;2023-04-23T01:16:29;97419.97;;;9.22;92.08
27202;BME280;14717;46.924;15.474;2023-04-23T01:18:55;97422.13;;;9.25;92.22
27202;BME280;14717;46.924;15.474;2023-04-23T01:21:21;97422.59;;;9.32;91.89
27202;BME280;14717;46.924;15.474;2023-04-23T01:23:48;97422.03;;;9.11;91.71
27202;BME280;14717;46.924;15.474;2023-04-23T01:26:14;97424.38;;;8.99;92.30
27202;BME280;14717;46.924;15.474;2023-04-23T01:28:41;97421.94;;;8.98;92.62
27202;BME280;14717;46.924;15.474;2023-04-23T01:31:07;97414.75;;;8.97;92.39
27202;BME280;14717;46.924;15.474;2023-04-23T01:33:34;97415.72;;;8.88;93.38
27202;BME280;14717;46.924;15.474;2023-04-23T01:36:01;97411.03;;;8.65;94.07
27202;BME280;14717;46.924;15.474;2023-04-23T01:38:29;97414.97;;;8.54;94.35
27202;BME280;14717;46.924;15.474;2023-04-23T01:40:56;97414.94;;;8.59;94.69
27202;BME280;14717;46.924;15.474;2023-04-23T01:43:21;97405.28;;;8.61;94.46
27202;BME280;14717;46.924;15.474;2023-04-23T01:45:47;97413.47;;;8.66;94.03
27202;BME280;14717;46.924;15.474;2023-04-23T01:48:13;97406.16;;;8.57;94.44
27202;BME280;14717;46.924;15.474;2023-04-23T01:50:39;97412.47;;;8.57;93.11
27202;BME280;14717;46.924;15.474;2023-04-23T01:53:04;97411.19;;;8.50;94.13
27202;BME280;14717;46.924;15.474;2023-04-23T01:55:30;97417.78;;;8.49;93.96
27202;BME280;14717;46.924;15.474;2023-04-23T01:57:56;97414.59;;;8.65;94.62
27202;BME280;14717;46.924;15.474;2023-04-23T02:00:21;97419.44;;;8.50;95.03
27202;BME280;14717;46.924;15.474;2023-04-23T02:02:47;97425.88;;;8.64;93.97
27202;BME280;14717;46.924;15.474;2023-04-23T02:05:17;97420.00;;;8.47;94.87
27202;BME280;14717;46.924;15.474;2023-04-23T02:07:48;97419.25;;;8.42;95.96
27202;BME280;14717;46.924;15.474;2023-04-23T02:10:14;97414.22;;;8.48;95.77
27202;BME280;14717;46.924;15.474;2023-04-23T02:12:40;97413.38;;;8.25;96.34
27202;BME280;14717;46.924;15.474;2023-04-23T02:15:07;97415.97;;;8.40;97.06
27202;BME280;14717;46.924;15.474;2023-04-23T02:17:32;97412.84;;;8.46;95.97
27202;BME280;14717;46.924;15.474;2023-04-23T02:19:59;97402.78;;;8.37;94.53
27202;BME280;14717;46.924;15.474;2023-04-23T02:22:25;97403.25;;;8.44;95.65
27202;BME280;14717;46.924;15.474;2023-04-23T02:24:54;97408.94;;;8.52;95.67
27202;BME280;14717;46.924;15.474;2023-04-23T02:27:20;97410.25;;;8.31;96.99
27202;BME280;14717;46.924;15.474;2023-04-23T02:29:47;97426.19;;;8.34;96.83
27202;BME280;14717;46.924;15.474;2023-04-23T02:32:12;97422.09;;;8.32;96.17
27202;BME280;14717;46.924;15.474;2023-04-23T02:34:38;97419.88;;;8.34;95.47
27202;BME280;14717;46.924;15.474;2023-04-23T02:37:03;97417.13;;;8.34;95.99
27202;BME280;14717;46.924;15.474;2023-04-23T02:39:29;97424.75;;;8.13;95.54
27202;BME280;14717;46.924;15.474;2023-04-23T02:41:55;97425.78;;;8.17;96.23
27202;BME280;14717;46.924;15.474;2023-04-23T02:44:21;97424.38;;;8.25;96.33
27202;BME280;14717;46.924;15.474;2023-04-23T02:46:46;97416.50;;;8.13;96.06
27202;BME280;14717;46.924;15.474;2023-04-23T02:49:11;97409.91;;;8.04;96.44
27202;BME280;14717;46.924;15.474;2023-04-23T02:51:38;97410.88;;;7.85;96.67
27202;BME280;14717;46.924;15.474;2023-04-23T02:54:04;97412.78;;;7.90;97.38
27202;BME280;14717;46.924;15.474;2023-04-23T02:56:30;97410.31;;;7.88;98.12
27202;BME280;14717;46.924;15.474;2023-04-23T02:58:55;97403.84;;;7.74;97.76
27202;BME280;14717;46.924;15.474;2023-04-23T03:01:21;97406.84;;;7.78;98.14
27202;BME280;14717;46.924;15.474;2023-04-23T03:03:46;97403.03;;;7.74;98.11
27202;BME280;14717;46.924;15.474;2023-04-23T03:06:12;97411.78;;;7.81;98.26
27202;BME280;14717;46.924;15.474;2023-04-23T03:08:37;97402.44;;;7.77;98.07
27202;BME280;14717;46.924;15.474;2023-04-23T03:11:03;97402.72;;;7.75;98.32
27202;BME280;14717;46.924;15.474;2023-04-23T03:13:28;97408.47;;;7.84;97.52
27202;BME280;14717;46.924;15.474;2023-04-23T03:15:54;97403.03;;;7.74;96.43
27202;BME280;14717;46.924;15.474;2023-04-23T03:18:19;97404.38;;;7.76;95.94
27202;BME280;14717;46.924;15.474;2023-04-23T03:20:45;97396.16;;;7.71;95.56
27202;BME280;14717;46.924;15.474;2023-04-23T03:23:11;97407.44;;;7.70;95.65
27202;BME280;14717;46.924;15.474;2023-04-23T03:25:36;97405.81;;;7.69;95.63
27202;BME280;14717;46.924;15.474;2023-04-23T03:28:01;97393.84;;;7.50;96.22
27202;BME280;14717;46.924;15.474;2023-04-23T03:30:27;97403.84;;;7.36;95.75
27202;BME280;14717;46.924;15.474;2023-04-23T03:32:56;97402.94;;;7.46;96.33
27202;BME280;14717;46.924;15.474;2023-04-23T03:35:23;97399.91;;;7.47;97.97
27202;BME280;14717;46.924;15.474;2023-04-23T03:37:49;97393.88;;;7.45;97.01
27202;BME280;14717;46.924;15.474;2023-04-23T03:40:15;97400.44;;;7.49;97.02
27202;BME280;14717;46.924;15.474;2023-04-23T03:42:40;97394.69;;;7.46;97.28
27202;BME280;14717;46.924;15.474;2023-04-23T03:45:06;97385.91;;;7.44;97.67
27202;BME280;14717;46.924;15.474;2023-04-23T03:47:32;97385.09;;;7.43;97.65
27202;BME280;14717;46.924;15.474;2023-04-23T03:49:57;97392.75;;;7.51;97.63
27202;BME280;14717;46.924;15.474;2023-04-23T03:52:22;97399.22;;;7.65;97.99
27202;BME280;14717;46.924;15.474;2023-04-23T03:54:48;97396.78;;;7.63;96.27
27202;BME280;14717;46.924;15.474;2023-04-23T03:57:13;97387.09;;;7.71;95.49
27202;BME280;14717;46.924;15.474;2023-04-23T03:59:38;97399.72;;;7.72;94.87
27202;BME280;14717;46.924;15.474;2023-04-23T04:02:04;97398.50;;;7.55;95.92
27202;BME280;14717;46.924;15.474;2023-04-23T04:04:30;97403.50;;;7.48;96.43
27202;BME280;14717;46.924;15.474;2023-04-23T04:06:56;97398.25;;;7.51;95.72
27202;BME280;14717;46.924;15.474;2023-04-23T04:09:22;97396.53;;;7.60;94.68
27202;BME280;14717;46.924;15.474;2023-04-23T04:11:47;97407.44;;;7.70;94.72
27202;BME280;14717;46.924;15.474;2023-04-23T04:14:13;97400.97;;;7.56;94.87
27202;BME280;14717;46.924;15.474;2023-04-23T04:16:38;97398.75;;;7.58;95.33
27202;BME280;14717;46.924;15.474;2023-04-23T04:19:04;97394.53;;;7.65;95.59
27202;BME280;14717;46.924;15.474;2023-04-23T04:21:30;97398.06;;;7.76;95.41
27202;BME280;14717;46.924;15.474;2023-04-23T04:23:56;97394.81;;;7.69;95.60
27202;BME280;14717;46.924;15.474;2023-04-23T04:26:21;97406.94;;;7.63;95.83
27202;BME280;14717;46.924;15.474;2023-04-23T04:28:47;97396.72;;;7.68;96.58
27202;BME280;14717;46.924;15.474;2023-04-23T04:31:13;97399.44;;;7.73;96.67
27202;BME280;14717;46.924;15.474;2023-04-23T04:33:40;97403.53;;;7.81;96.52
27202;BME280;14717;46.924;15.474;2023-04-23T04:36:06;97405.06;;;7.92;97.03
27202;BME280;14717;46.924;15.474;2023-04-23T04:38:33;97411.03;;;8.04;96.60
27202;BME280;14717;46.924;15.474;2023-04-23T04:41:02;97406.59;;;8.12;95.48
27202;BME280;14717;46.924;15.474;2023-04-23T04:43:27;97414.13;;;7.97;96.51
27202;BME280;14717;46.924;15.474;2023-04-23T04:45:53;97411.72;;;7.86;98.33
27202;BME280;14717;46.924;15.474;2023-04-23T04:48:18;97410.97;;;7.75;100.00
27202;BME280;14717;46.924;15.474;2023-04-23T04:50:44;97401.63;;;7.76;100.00
27202;BME280;14717;46.924;15.474;2023-04-23T04:53:10;97405.38;;;7.85;100.00
27202;BME280;14717;46.924;15.474;2023-04-23T04:55:36;97402.91;;;7.89;100.00
27202;BME280;14717;46.924;15.474;2023-04-23T04:58:01;97408.94;;;7.91;100.00
27202;BME280;14717;46.924;15.474;2023-04-23T05:00:27;97407.78;;;7.97;100.00
27202;BME280;14717;46.924;15.474;2023-04-23T05:02:55;97412.47;;;8.29;99.85
27202;BME280;14717;46.924;15.474;2023-04-23T05:05:23;97413.06;;;8.54;98.12
27202;BME280;14717;46.924;15.474;2023-04-23T05:07:49;97410.34;;;8.78;97.23
27202;BME280;14717;46.924;15.474;2023-04-23T05:10:14;97406.22;;;8.98;96.39
27202;BME280;14717;46.924;15.474;2023-04-23T05:12:41;97406.56;;;9.15;96.28
27202;BME280;14717;46.924;15.474;2023-04-23T05:15:08;97407.47;;;9.29;95.43
27202;BME280;14717;46.924;15.474;2023-04-23T05:17:35;97405.69;;;9.38;95.22
27202;BME280;14717;46.924;15.474;2023-04-23T05:20:00;97399.44;;;9.69;93.85
27202;BME280;14717;46.924;15.474;2023-04-23T05:22:26;97391.09;;;9.92;93.16
27202;BME280;14717;46.924;15.474;2023-04-23T05:24:51;97396.84;;;10.14;90.68
27202;BME280;14717;46.924;15.474;2023-04-23T05:27:17;97399.03;;;10.30;91.02
27202;BME280;14717;46.924;15.474;2023-04-23T05:29:42;97392.50;;;10.40;89.66
27202;BME280;14717;46.924;15.474;2023-04-23T05:32:08;97389.66;;;10.45;90.30
27202;BME280;14717;46.924;15.474;2023-04-23T05:34:33;97390.41;;;10.50;90.05
27202;BME280;14717;46.924;15.474;2023-04-23T05:36:59;97393.38;;;10.54;88.99
27202;BME280;14717;46.924;15.474;2023-04-23T05:39:25;97384.38;;;10.62;89.90
27202;BME280;14717;46.924;15.474;2023-04-23T05:41:50;97382.94;;;10.77;89.93
27202;BME280;14717;46.924;15.474;2023-04-23T05:44:15;97381.03;;;10.91;89.03
27202;BME280;14717;46.924;15.474;2023-04-23T05:46:41;97389.53;;;10.95;88.79
27202;BME280;14717;46.924;15.474;2023-04-23T05:49:06;97389.94;;;11.02;88.52
27202;BME280;14717;46.924;15.474;2023-04-23T05:51:31;97392.78;;;11.10;88.67
27202;BME280;14717;46.924;15.474;2023-04-23T05:53:57;97393.69;;;11.19;88.66
27202;BME280;14717;46.924;15.474;2023-04-23T05:56:22;97393.81;;;11.27;87.85
27202;BME280;14717;46.924;15.474;2023-04-23T05:58:47;97398.72;;;11.30;87.76
27202;BME280;14717;46.924;15.474;2023-04-23T06:01:13;97400.16;;;11.28;88.30
27202;BME280;14717;46.924;15.474;2023-04-23T06:03:39;97403.44;;;11.30;88.26
27202;BME280;14717;46.924;15.474;2023-04-23T06:06:09;97401.19;;;11.32;88.50
27202;BME280;14717;46.924;15.474;2023-04-23T06:08:34;97407.75;;;11.49;87.33
27202;BME280;14717;46.924;15.474;2023-04-23T06:11:00;97406.69;;;11.72;86.04
27202;BME280;14717;46.924;15.474;2023-04-23T06:13:26;97411.13;;;11.94;83.99
27202;BME280;14717;46.924;15.474;2023-04-23T06:15:52;97405.75;;;12.11;82.62
27202;BME280;14717;46.924;15.474;2023-04-23T06:18:18;97404.47;;;12.17;82.97
27202;BME280;14717;46.924;15.474;2023-04-23T06:20:43;97411.28;;;12.33;82.64
27202;BME280;14717;46.924;15.474;2023-04-23T06:23:11;97416.25;;;12.44;81.57
27202;BME280;14717;46.924;15.474;2023-04-23T06:25:36;97417.13;;;12.53;81.83
27202;BME280;14717;46.924;15.474;2023-04-23T06:28:02;97413.63;;;12.39;82.35
27202;BME280;14717;46.924;15.474;2023-04-23T06:30:27;97411.72;;;12.27;81.65
27202;BME280;14717;46.924;15.474;2023-04-23T06:32:52;97407.56;;;12.59;80.68
27202;BME280;14717;46.924;15.474;2023-04-23T06:35:18;97417.69;;;12.85;78.62
27202;BME280;14717;46.924;15.474;2023-04-23T06:37:43;97419.13;;;12.83;79.79
27202;BME280;14717;46.924;15.474;2023-04-23T06:40:09;97416.34;;;12.83;79.41
27202;BME280;14717;46.924;15.474;2023-04-23T06:42:35;97417.13;;;12.75;78.56
27202;BME280;14717;46.924;15.474;2023-04-23T06:45:00;97413.88;;;13.03;77.22
27202;BME280;14717;46.924;15.474;2023-04-23T06:47:29;97414.31;;;13.35;76.42
27202;BME280;14717;46.924;15.474;2023-04-23T06:49:54;97413.56;;;13.60;75.59
27202;BME280;14717;46.924;15.474;2023-04-23T06:52:19;97408.88;;;13.61;74.39
27202;BME280;14717;46.924;15.474;2023-04-23T06:54:45;97414.28;;;13.74;75.83
27202;BME280;14717;46.924;15.474;2023-04-23T06:57:10;97407.56;;;13.83;73.79
27202;BME280;14717;46.924;15.474;2023-04-23T06:59:35;97409.94;;;14.06;73.58
27202;BME280;14717;46.924;15.474;2023-04-23T07:02:01;97399.94;;;13.97;74.18
27202;BME280;14717;46.924;15.474;2023-04-23T07:04:26;97396.69;;;14.12;73.46
27202;BME280;14717;46.924;15.474;2023-04-23T07:06:52;97393.28;;;14.23;74.61
27202;BME280;14717;46.924;15.474;2023-04-23T07:09:17;97388.53;;;14.15;73.00
27202;BME280;14717;46.924;15.474;2023-04-23T07:11:42;97381.16;;;14.28;76.25
27202;BME280;14717;46.924;15.474;2023-04-23T07:14:08;97392.75;;;14.13;72.21
27202;BME280;14717;46.924;15.474;2023-04-23T07:16:33;97390.16;;;14.33;72.78
27202;BME280;14717;46.924;15.474;2023-04-23T07:19:00;97382.78;;;14.46;71.42
27202;BME280;14717;46.924;15.474;2023-04-23T07:21:27;97377.72;;;14.56;72.39
27202;BME280;14717;46.924;15.474;2023-04-23T07:23:56;97383.44;;;15.05;70.91
27202;BME280;14717;46.924;15.474;2023-04-23T07:26:23;97377.44;;;15.40;70.15
27202;BME280;14717;46.924;15.474;2023-04-23T07:28:49;97377.63;;;15.64;67.82
27202;BME280;14717;46.924;15.474;2023-04-23T07:31:16;97379.56;;;15.72;68.18
27202;BME280;14717;46.924;15.474;2023-04-23T07:33:42;97384.00;;;15.93;67.78
27202;BME280;14717;46.924;15.474;2023-04-23T07:36:07;97367.75;;;16.15;67.23
27202;BME280;14717;46.924;15.474;2023-04-23T07:38:32;97368.72;;;16.19;67.05
27202;BME280;14717;46.924;15.474;2023-04-23T07:40:58;97377.22;;;16.43;66.60
27202;BME280;14717;46.924;15.474;2023-04-23T07:43:23;97378.59;;;16.69;65.48
27202;BME280;14717;46.924;15.474;2023-04-23T07:45:48;97373.88;;;16.81;65.17
27202;BME280;14717;46.924;15.474;2023-04-23T07:48:14;97376.25;;;16.91;63.35
27202;BME280;14717;46.924;15.474;2023-04-23T07:50:39;97373.00;;;16.89;64.38
27202;BME280;14717;46.924;15.474;2023-04-23T07:53:04;97365.81;;;17.12;63.37
27202;BME280;14717;46.924;15.474;2023-04-23T07:55:30;97367.19;;;16.94;64.46
27202;BME280;14717;46.924;15.474;2023-04-23T07:57:55;97363.09;;;17.36;65.15
27202;BME280;14717;46.924;15.474;2023-04-23T08:00:21;97365.53;;;17.49;63.27
27202;BME280;14717;46.924;15.474;2023-04-23T08:02:46;97365.16;;;17.74;62.22
27202;BME280;14717;46.924;15.474;2023-04-23T08:05:11;97353.84;;;17.83;61.75
27202;BME280;14717;46.924;15.474;2023-04-23T08:07:37;97357.59;;;17.87;60.49
27202;BME280;14717;46.924;15.474;2023-04-23T08:10:02;97371.19;;;18.00;58.65
27202;BME280;14717;46.924;15.474;2023-04-23T08:12:30;97361.66;;;18.13;59.73
27202;BME280;14717;46.924;15.474;2023-04-23T08:14:58;97355.31;;;18.28;57.52
27202;BME280;14717;46.924;15.474;2023-04-23T08:17:23;97352.78;;;18.50;57.57
27202;BME280;14717;46.924;15.474;2023-04-23T08:19:48;97351.03;;;18.57;56.32
27202;BME280;14717;46.924;15.474;2023-04-23T08:22:13;97348.94;;;18.81;55.71
27202;BME280;14717;46.924;15.474;2023-04-23T08:24:41;97350.50;;;18.67;55.96
27202;BME280;14717;46.924;15.474;2023-04-23T08:27:07;97338.88;;;18.80;56.04
27202;BME280;14717;46.924;15.474;2023-04-23T08:29:32;97339.06;;;18.72;56.26
27202;BME280;14717;46.924;15.474;2023-04-23T08:31:57;97342.09;;;18.67;56.66
27202;BME280;14717;46.924;15.474;2023-04-23T08:34:23;97340.66;;;18.73;55.41
27202;BME280;14717;46.924;15.474;2023-04-23T08:36:48;97343.59;;;18.92;56.29
27202;BME280;14717;46.924;15.474;2023-04-23T08:39:13;97338.63;;;19.13;56.57
27202;BME280;14717;46.924;15.474;2023-04-23T08:41:40;97337.78;;;19.12;55.51
27202;BME280;14717;46.924;15.474;2023-04-23T08:44:17;97343.28;;;19.24;55.29
27202;BME280;14717;46.924;15.474;2023-04-23T08:46:44;97339.06;;;19.45;53.78
27202;BME280;14717;46.924;15.474;2023-04-23T08:49:15;97335.25;;;19.84;55.21
27202;BME280;14717;46.924;15.474;2023-04-23T08:51:45;97336.50;;;19.86;52.09
27202;BME280;14717;46.924;15.474;2023-04-23T08:54:18;97334.56;;;20.06;53.33
27202;BME280;14717;46.924;15.474;2023-04-23T08:56:46;97327.72;;;19.88;51.84
27202;BME280;14717;46.924;15.474;2023-04-23T08:59:11;97332.94;;;20.05;52.63
27202;BME280;14717;46.924;15.474;2023-04-23T09:01:37;97336.34;;;20.13;51.65
27202;BME280;14717;46.924;15.474;2023-04-23T09:04:03;97324.63;;;20.08;52.17
27202;BME280;14717;46.924;15.474;2023-04-23T09:06:29;97329.53;;;19.96;52.17
27202;BME280;14717;46.924;15.474;2023-04-23T09:08:57;97333.09;;;20.11;52.06
27202;BME280;14717;46.924;15.474;2023-04-23T09:11:26;97326.84;;;20.18;50.89
27202;BME280;14717;46.924;15.474;2023-04-23T09:13:51;97328.53;;;20.22;50.56
27202;BME280;14717;46.924;15.474;2023-04-23T09:16:17;97330.75;;;20.13;52.24
27202;BME280;14717;46.924;15.474;2023-04-23T09:18:43;97329.69;;;20.03;51.16
27202;BME280;14717;46.924;15.474;2023-04-23T09:21:08;97321.34;;;20.06;52.04
27202;BME280;14717;46.924;15.474;2023-04-23T09:23:37;97321.97;;;20.15;51.18
27202;BME280;14717;46.924;15.474;2023-04-23T09:26:05;97326.66;;;20.11;52.40
27202;BME280;14717;46.924;15.474;2023-04-23T09:28:36;97318.72;;;20.13;52.66
27202;BME280;14717;46.924;15.474;2023-04-23T09:31:05;97327.88;;;19.95;51.05
27202;BME280;14717;46.924;15.474;2023-04-23T09:33:34;97314.06;;;20.02;52.04
27202;BME280;14717;46.924;15.474;2023-04-23T09:36:10;97306.75;;;20.16;54.78
27202;BME280;14717;46.924;15.474;2023-04-23T09:38:40;97311.88;;;20.67;52.81
27202;BME280;14717;46.924;15.474;2023-04-23T09:41:22;97303.50;;;20.89;51.15
27202;BME280;14717;46.924;15.474;2023-04-23T09:43:48;97304.31;;;20.90;50.70
27202;BME280;14717;46.924;15.474;2023-04-23T09:46:13;97306.78;;;21.13;50.01
27202;BME280;14717;46.924;15.474;2023-04-23T09:48:40;97299.66;;;21.19;49.05
27202;BME280;14717;46.924;15.474;2023-04-23T09:51:06;97295.78;;;21.05;49.99
27202;BME280;14717;46.924;15.474;2023-04-23T09:53:39;97293.72;;;21.24;49.59
27202;BME280;14717;46.924;15.474;2023-04-23T09:56:06;97289.78;;;21.29;49.23
27202;BME280;14717;46.924;15.474;2023-04-23T09:58:31;97295.47;;;21.32;49.18
27202;BME280;14717;46.924;15.474;2023-04-23T10:01:07;97292.09;;;21.23;49.01
27202;BME280;14717;46.924;15.474;2023-04-23T10:03:33;97285.16;;;21.39;49.21
27202;BME280;14717;46.924;15.474;2023-04-23T10:05:59;97277.41;;;21.55;49.51
27202;BME280;14717;46.924;15.474;2023-04-23T10:08:26;97271.63;;;21.45;50.43
27202;BME280;14717;46.924;15.474;2023-04-23T10:10:51;97272.63;;;21.56;49.56
27202;BME280;14717;46.924;15.474;2023-04-23T10:13:17;97272.50;;;21.75;47.97
27202;BME280;14717;46.924;15.474;2023-04-23T10:15:45;97261.69;;;21.77;49.09
27202;BME280;14717;46.924;15.474;2023-04-23T10:18:13;97262.44;;;21.74;47.64
27202;BME280;14717;46.924;15.474;2023-04-23T10:20:39;97254.84;;;22.03;47.38
27202;BME280;14717;46.924;15.474;2023-04-23T10:23:07;97258.88;;;21.77;49.07
27202;BME280;14717;46.924;15.474;2023-04-23T10:25:35;97259.28;;;21.78;49.42
27202;BME280;14717;46.924;15.474;2023-04-23T10:28:02;97254.13;;;21.80;46.75
27202;BME280;14717;46.924;15.474;2023-04-23T10:30:29;97250.38;;;21.99;45.73
27202;BME280;14717;46.924;15.474;2023-04-23T10:32:57;97243.63;;;22.07;45.61
27202;BME280;14717;46.924;15.474;2023-04-23T10:35:24;97238.06;;;22.10;46.03
27202;BME280;14717;46.924;15.474;2023-04-23T10:37:50;97244.59;;;22.18;46.11
27202;BME280;14717;46.924;15.474;2023-04-23T10:40:29;97232.53;;;22.46;46.96
27202;BME280;14717;46.924;15.474;2023-04-23T10:42:56;97237.94;;;22.62;44.04
27202;BME280;14717;46.924;15.474;2023-04-23T10:45:22;97228.13;;;22.49;44.99
27202;BME280;14717;46.924;15.474;2023-04-23T10:47:47;97226.41;;;22.73;45.24
27202;BME280;14717;46.924;15.474;2023-04-23T10:52:47;97221.72;;;22.52;44.59
27202;BME280;14717;46.924;15.474;2023-04-23T10:55:28;97226.81;;;22.75;45.66
27202;BME280;14717;46.924;15.474;2023-04-23T11:00:22;97223.56;;;22.73;43.92
27202;BME280;14717;46.924;15.474;2023-04-23T11:02:49;97215.56;;;22.79;43.34
27202;BME280;14717;46.924;15.474;2023-04-23T11:05:15;97223.69;;;22.84;42.43
27202;BME280;14717;46.924;15.474;2023-04-23T11:07:41;97220.09;;;22.87;40.64
27202;BME280;14717;46.924;15.474;2023-04-23T11:10:13;97214.88;;;22.89;45.40
27202;BME280;14717;46.924;15.474;2023-04-23T11:12:39;97222.88;;;22.83;41.97
27202;BME280;14717;46.924;15.474;2023-04-23T11:15:13;97221.72;;;22.88;42.30
27202;BME280;14717;46.924;15.474;2023-04-23T11:20:14;97213.75;;;22.93;41.42
27202;BME280;14717;46.924;15.474;2023-04-23T11:25:29;97210.63;;;22.69;43.27
27202;BME280;14717;46.924;15.474;2023-04-23T11:27:56;97209.88;;;22.72;42.90
27202;BME280;14717;46.924;15.474;2023-04-23T11:30:27;97208.78;;;22.47;44.67
27202;BME280;14717;46.924;15.474;2023-04-23T11:32:54;97209.06;;;22.71;43.43
27202;BME280;14717;46.924;15.474;2023-04-23T11:35:22;97208.00;;;22.83;42.22
27202;BME280;14717;46.924;15.474;2023-04-23T11:37:48;97197.16;;;22.88;43.79
27202;BME280;14717;46.924;15.474;2023-04-23T11:40:18;97197.13;;;22.85;43.56
27202;BME280;14717;46.924;15.474;2023-04-23T11:45:22;97188.69;;;23.28;43.57
27202;BME280;14717;46.924;15.474;2023-04-23T11:47:49;97182.69;;;23.33;43.46
27202;BME280;14717;46.924;15.474;2023-04-23T11:50:26;97185.00;;;23.17;43.07
27202;BME280;14717;46.924;15.474;2023-04-23T11:52:52;97184.78;;;23.46;43.07
27202;BME280;14717;46.924;15.474;2023-04-23T11:55:18;97193.59;;;23.38;42.84
27202;BME280;14717;46.924;15.474;2023-04-23T11:57:46;97181.50;;;23.34;43.38
27202;BME280;14717;46.924;15.474;2023-04-23T12:02:55;97186.81;;;23.46;43.60
27202;BME280;14717;46.924;15.474;2023-04-23T12:05:22;97169.25;;;23.12;43.42
27202;BME280;14717;46.924;15.474;2023-04-23T12:07:50;97174.63;;;23.35;42.63
27202;BME280;14717;46.924;15.474;2023-04-23T12:10:17;97177.47;;;23.35;42.04
27202;BME280;14717;46.924;15.474;2023-04-23T12:12:43;97174.13;;;23.19;41.89
27202;BME280;14717;46.924;15.474;2023-04-23T12:15:09;97166.56;;;23.33;42.02
27202;BME280;14717;46.924;15.474;2023-04-23T12:17:34;97159.44;;;23.50;42.53
27202;BME280;14717;46.924;15.474;2023-04-23T12:20:03;97159.88;;;23.52;41.70
27202;BME280;14717;46.924;15.474;2023-04-23T12:22:28;97154.22;;;23.52;44.64
27202;BME280;14717;46.924;15.474;2023-04-23T12:24:54;97154.88;;;23.88;42.58
27202;BME280;14717;46.924;15.474;2023-04-23T12:27:20;97148.31;;;23.67;40.89
27202;BME280;14717;46.924;15.474;2023-04-23T12:29:47;97140.63;;;23.67;41.58
27202;BME280;14717;46.924;15.474;2023-04-23T12:32:14;97139.03;;;23.63;41.12
27202;BME280;14717;46.924;15.474;2023-04-23T12:34:55;97142.97;;;23.55;41.63
27202;BME280;14717;46.924;15.474;2023-04-23T12:37:28;97141.13;;;23.23;42.77
27202;BME280;14717;46.924;15.474;2023-04-23T12:39:54;97135.28;;;23.52;42.42
27202;BME280;14717;46.924;15.474;2023-04-23T12:42:20;97137.81;;;23.64;42.75
27202;BME280;14717;46.924;15.474;2023-04-23T12:44:46;97129.06;;;23.86;42.13
27202;BME280;14717;46.924;15.474;2023-04-23T12:47:12;97125.88;;;23.91;42.07
27202;BME280;14717;46.924;15.474;2023-04-23T12:49:40;97128.19;;;23.72;41.55
27202;BME280;14717;46.924;15.474;2023-04-23T12:52:06;97120.41;;;23.58;41.74
27202;BME280;14717;46.924;15.474;2023-04-23T12:54:34;97114.06;;;23.68;42.88
27202;BME280;14717;46.924;15.474;2023-04-23T12:57:04;97110.47;;;23.75;44.58
27202;BME280;14717;46.924;15.474;2023-04-23T12:59:30;97117.03;;;24.03;41.85
27202;BME280;14717;46.924;15.474;2023-04-23T13:01:56;97106.50;;;23.93;41.34
27202;BME280;14717;46.924;15.474;2023-04-23T13:04:26;97112.59;;;24.02;41.52
27202;BME280;14717;46.924;15.474;2023-04-23T13:06:51;97108.09;;;23.94;41.54